createdAt,value
2022-11-03T00:00:52.568Z,0.00
2022-11-03T00:01:52.692Z,0.00
2022-11-03T00:02:52.626Z,0.00
2022-11-03T00:03:52.520Z,0.00
2022-11-03T00:04:52.523Z,0.00
2022-11-03T00:05:52.503Z,0.00
2022-11-03T00:06:52.512Z,0.00
2022-11-03T00:07:52.500Z,0.00
2022-11-03T00:08:52.477Z,0.00
2022-11-03T00:09:52.474Z,0.00
2022-11-03T00:10:52.446Z,0.00
2022-11-03T00:11:52.457Z,0.00
2022-11-03T00:12:52.439Z,0.00
2022-11-03T00:13:52.427Z,0.00
2022-11-03T00:14:52.414Z,0.00
2022-11-03T00:15:52.400Z,0.00
2022-11-03T00:16:52.388Z,0.00
2022-11-03T00:17:52.377Z,0.00
2022-11-03T00:18:52.388Z,0.00
2022-11-03T00:19:52.351Z,0.00
2022-11-03T00:20:52.350Z,0.00
2022-11-03T00:21:52.328Z,0.00
2022-11-03T00:22:52.326Z,0.00
2022-11-03T00:23:52.326Z,0.00
2022-11-03T00:24:52.327Z,0.00
2022-11-03T00:25:52.302Z,0.00
2022-11-03T00:26:52.277Z,0.00
2022-11-03T00:27:52.288Z,0.00
2022-11-03T00:28:52.258Z,0.00
2022-11-03T00:29:52.248Z,0.00
2022-11-03T00:30:52.248Z,0.00
2022-11-03T00:31:52.221Z,0.00
2022-11-03T00:32:52.214Z,0.00
2022-11-03T00:33:52.206Z,0.00
2022-11-03T00:34:52.208Z,0.00
2022-11-03T00:35:52.191Z,0.00
2022-11-03T00:36:52.175Z,0.00
2022-11-03T00:37:52.163Z,0.00
2022-11-03T00:38:52.160Z,0.00
2022-11-03T00:39:52.134Z,0.00
2022-11-03T00:40:52.147Z,0.00
2022-11-03T00:41:52.126Z,0.00
2022-11-03T00:42:52.110Z,0.00
2022-11-03T00:43:52.098Z,0.00
2022-11-03T00:44:52.089Z,0.00
2022-11-03T00:45:52.094Z,0.00
2022-11-03T00:46:52.067Z,0.00
2022-11-03T00:48:52.040Z,0.00
2022-11-03T00:49:52.026Z,0.00
2022-11-03T00:50:52.015Z,0.00
2022-11-03T00:51:52.025Z,0.00
2022-11-03T00:52:52.002Z,0.00
2022-11-03T00:53:51.988Z,0.00
2022-11-03T00:54:55.227Z,0.00
2022-11-03T00:55:51.959Z,0.00
2022-11-03T00:56:51.950Z,0.00
2022-11-03T00:57:51.980Z,0.00
2022-11-03T00:58:51.933Z,0.00
2022-11-03T00:59:51.931Z,0.00
2022-11-03T01:00:51.936Z,0.00
2022-11-03T01:01:51.982Z,0.00
2022-11-03T01:02:51.923Z,0.00
2022-11-03T01:03:51.899Z,0.00
2022-11-03T01:04:51.882Z,0.00
2022-11-03T01:05:51.853Z,0.00
2022-11-03T01:06:51.847Z,0.00
2022-11-03T01:07:51.989Z,0.00
2022-11-03T01:08:51.824Z,0.00
2022-11-03T01:09:51.824Z,0.00
2022-11-03T01:10:51.811Z,0.00
2022-11-03T01:11:51.800Z,0.00
2022-11-03T01:12:51.784Z,0.00
2022-11-03T01:13:51.811Z,0.00
2022-11-03T01:14:51.779Z,0.00
2022-11-03T01:15:51.757Z,0.00
2022-11-03T01:16:51.743Z,0.00
2022-11-03T01:17:51.732Z,0.00
2022-11-03T01:18:51.717Z,0.00
2022-11-03T01:19:51.736Z,0.00
2022-11-03T01:20:51.707Z,0.00
2022-11-03T01:21:51.680Z,0.00
2022-11-03T01:22:51.681Z,0.00
2022-11-03T01:23:51.667Z,0.00
2022-11-03T01:24:51.660Z,0.00
2022-11-03T01:25:51.769Z,0.00
2022-11-03T01:26:51.629Z,0.00
2022-11-03T01:27:51.663Z,0.00
2022-11-03T01:28:51.607Z,0.00
2022-11-03T01:29:51.609Z,0.00
2022-11-03T01:30:51.585Z,0.00
2022-11-03T01:31:51.590Z,0.00
2022-11-03T01:32:51.563Z,0.00
2022-11-03T01:33:51.553Z,0.00
2022-11-03T01:34:51.550Z,0.00
2022-11-03T01:35:51.542Z,0.00
2022-11-03T01:36:51.531Z,0.00
2022-11-03T01:37:51.510Z,0.00
2022-11-03T01:38:51.506Z,0.00
2022-11-03T01:39:51.487Z,0.00
2022-11-03T01:40:51.480Z,0.00
2022-11-03T01:41:51.491Z,0.00
2022-11-03T01:42:59.427Z,0.00
2022-11-03T01:43:51.441Z,0.00
2022-11-03T01:44:51.442Z,0.00
2022-11-03T01:45:51.447Z,0.00
2022-11-03T01:46:51.419Z,0.00
2022-11-03T01:47:51.460Z,0.00
2022-11-03T01:48:51.392Z,0.00
2022-11-03T01:49:51.386Z,0.00
2022-11-03T01:50:51.383Z,0.00
2022-11-03T01:51:51.359Z,0.00
2022-11-03T01:52:51.362Z,0.00
2022-11-03T01:53:51.355Z,0.00
2022-11-03T01:54:51.338Z,0.00
2022-11-03T01:55:51.315Z,0.00
2022-11-03T01:56:51.324Z,0.00
2022-11-03T01:57:51.302Z,0.00
2022-11-03T01:58:51.279Z,0.00
2022-11-03T01:59:51.280Z,0.00
2022-11-03T02:00:51.322Z,0.00
2022-11-03T02:01:51.417Z,0.00
2022-11-03T02:02:51.249Z,0.00
2022-11-03T02:03:51.240Z,0.00
2022-11-03T02:04:51.221Z,0.00
2022-11-03T02:05:51.215Z,0.00
2022-11-03T02:06:51.203Z,0.00
2022-11-03T02:07:51.181Z,0.00
2022-11-03T02:08:51.187Z,0.00
2022-11-03T02:09:51.172Z,0.00
2022-11-03T02:10:51.174Z,0.00
2022-11-03T02:11:51.148Z,0.00
2022-11-03T02:12:51.149Z,0.00
2022-11-03T02:13:51.135Z,0.00
2022-11-03T02:14:51.109Z,0.00
2022-11-03T02:15:51.142Z,0.00
2022-11-03T02:16:51.097Z,0.00
2022-11-03T02:17:51.100Z,0.00
2022-11-03T02:18:51.075Z,0.00
2022-11-03T02:19:51.062Z,0.00
2022-11-03T02:20:51.078Z,0.00
2022-11-03T02:21:51.050Z,0.00
2022-11-03T02:22:51.036Z,0.00
2022-11-03T02:23:51.009Z,0.00
2022-11-03T02:24:53.946Z,0.00
2022-11-03T02:25:51.003Z,0.00
2022-11-03T02:26:50.994Z,0.00
2022-11-03T02:27:50.968Z,0.00
2022-11-03T02:28:50.978Z,0.00
2022-11-03T02:29:50.959Z,0.00
2022-11-03T02:30:50.934Z,0.00
2022-11-03T02:31:50.930Z,0.00
2022-11-03T02:32:50.927Z,0.00
2022-11-03T02:33:50.946Z,0.00
2022-11-03T02:34:50.897Z,0.00
2022-11-03T02:35:50.895Z,0.00
2022-11-03T02:36:50.881Z,0.00
2022-11-03T02:37:50.862Z,0.00
2022-11-03T02:38:50.859Z,0.00
2022-11-03T02:39:50.871Z,0.00
2022-11-03T02:40:50.837Z,0.00
2022-11-03T02:41:50.827Z,0.00
2022-11-03T02:42:50.806Z,0.00
2022-11-03T02:43:50.807Z,0.00
2022-11-03T02:44:50.799Z,0.00
2022-11-03T02:45:50.785Z,0.00
2022-11-03T02:46:50.783Z,0.00
2022-11-03T02:47:50.766Z,0.00
2022-11-03T02:48:50.742Z,0.00
2022-11-03T02:49:50.804Z,0.00
2022-11-03T02:50:50.730Z,0.00
2022-11-03T02:51:50.733Z,0.00
2022-11-03T02:52:50.727Z,0.00
2022-11-03T02:53:50.694Z,0.00
2022-11-03T02:54:50.679Z,0.00
2022-11-03T02:55:50.673Z,0.00
2022-11-03T02:56:50.662Z,0.00
2022-11-03T02:57:50.656Z,0.00
2022-11-03T02:58:50.664Z,0.00
2022-11-03T02:59:50.632Z,0.00
2022-11-03T03:00:50.668Z,0.00
2022-11-03T03:01:50.732Z,0.00
2022-11-03T03:02:50.606Z,0.00
2022-11-03T03:03:50.590Z,0.00
2022-11-03T03:04:50.572Z,0.00
2022-11-03T03:05:50.586Z,0.00
2022-11-03T03:06:50.564Z,0.00
2022-11-03T03:07:50.547Z,0.00
2022-11-03T03:08:50.554Z,0.00
2022-11-03T03:09:50.521Z,0.00
2022-11-03T03:10:50.511Z,0.00
2022-11-03T03:11:50.499Z,0.00
2022-11-03T03:12:50.527Z,0.00
2022-11-03T03:13:50.484Z,0.00
2022-11-03T03:14:50.478Z,0.00
2022-11-03T03:15:50.459Z,0.00
2022-11-03T03:16:50.450Z,0.00
2022-11-03T03:17:50.451Z,0.00
2022-11-03T03:18:50.420Z,0.00
2022-11-03T03:19:50.437Z,0.00
2022-11-03T03:20:50.401Z,0.00
2022-11-03T03:21:50.406Z,0.00
2022-11-03T03:22:50.386Z,0.00
2022-11-03T03:23:50.373Z,0.00
2022-11-03T03:24:50.364Z,0.00
2022-11-03T03:25:50.357Z,0.00
2022-11-03T03:26:50.356Z,0.00
2022-11-03T03:27:50.331Z,0.00
2022-11-03T03:28:50.313Z,0.00
2022-11-03T03:29:50.310Z,0.00
2022-11-03T03:30:50.319Z,0.00
2022-11-03T03:31:50.282Z,0.00
2022-11-03T03:32:50.280Z,0.00
2022-11-03T03:33:53.225Z,0.00
2022-11-03T03:34:50.258Z,0.00
2022-11-03T03:35:50.254Z,0.00
2022-11-03T03:36:50.241Z,0.00
2022-11-03T03:37:50.245Z,0.00
2022-11-03T03:38:50.236Z,0.00
2022-11-03T03:39:50.203Z,0.00
2022-11-03T03:40:50.188Z,0.00
2022-11-03T03:41:50.198Z,0.00
2022-11-03T03:42:50.160Z,0.00
2022-11-03T03:43:50.157Z,0.00
2022-11-03T03:44:50.153Z,0.00
2022-11-03T03:45:50.128Z,0.00
2022-11-03T03:46:50.127Z,0.00
2022-11-03T03:47:53.666Z,0.00
2022-11-03T03:48:51.110Z,0.00
2022-11-03T03:49:50.123Z,0.00
2022-11-03T03:50:50.081Z,0.00
2022-11-03T03:51:50.071Z,0.00
2022-11-03T03:52:50.075Z,0.00
2022-11-03T03:53:50.072Z,0.00
2022-11-03T03:54:50.043Z,0.00
2022-11-03T03:55:50.055Z,0.00
2022-11-03T03:56:50.015Z,0.00
2022-11-03T03:57:50.026Z,0.00
2022-11-03T03:58:49.997Z,0.00
2022-11-03T03:59:49.991Z,0.00
2022-11-03T04:00:50.041Z,0.00
2022-11-03T04:01:50.082Z,0.00
2022-11-03T04:02:49.950Z,0.00
2022-11-03T04:03:49.948Z,0.00
2022-11-03T04:04:49.970Z,0.00
2022-11-03T04:05:49.926Z,0.00
2022-11-03T04:06:49.907Z,0.00
2022-11-03T04:07:49.900Z,0.00
2022-11-03T04:08:49.893Z,0.00
2022-11-03T04:09:49.906Z,0.00
2022-11-03T04:10:49.891Z,0.00
2022-11-03T04:11:49.866Z,0.00
2022-11-03T04:12:49.850Z,0.00
2022-11-03T04:13:49.839Z,0.00
2022-11-03T04:14:49.827Z,0.00
2022-11-03T04:15:49.806Z,0.00
2022-11-03T04:16:49.813Z,0.00
2022-11-03T04:17:49.798Z,0.00
2022-11-03T04:18:49.796Z,0.00
2022-11-03T04:19:49.770Z,0.00
2022-11-03T04:20:49.780Z,0.00
2022-11-03T04:21:49.778Z,0.00
2022-11-03T04:22:49.732Z,0.00
2022-11-03T04:23:49.729Z,0.00
2022-11-03T04:24:49.713Z,0.00
2022-11-03T04:25:49.730Z,0.00
2022-11-03T04:26:49.715Z,0.00
2022-11-03T04:27:49.686Z,0.00
2022-11-03T04:28:49.705Z,0.00
2022-11-03T04:29:49.660Z,0.00
2022-11-03T04:30:53.310Z,0.00
2022-11-03T04:31:49.657Z,0.00
2022-11-03T04:32:49.644Z,0.00
2022-11-03T04:33:49.626Z,0.00
2022-11-03T04:34:49.620Z,0.00
2022-11-03T04:35:49.606Z,0.00
2022-11-03T04:36:49.592Z,0.00
2022-11-03T04:37:49.581Z,0.00
2022-11-03T04:38:49.583Z,0.00
2022-11-03T04:39:49.591Z,0.00
2022-11-03T04:40:53.616Z,0.00
2022-11-03T04:41:50.573Z,0.00
2022-11-03T04:42:49.536Z,0.00
2022-11-03T04:43:49.517Z,0.00
2022-11-03T04:44:49.511Z,0.00
2022-11-03T04:45:49.490Z,0.00
2022-11-03T04:46:49.486Z,0.00
2022-11-03T04:47:49.473Z,0.00
2022-11-03T04:48:49.511Z,0.00
2022-11-03T04:49:49.453Z,0.00
2022-11-03T04:50:49.441Z,0.00
2022-11-03T04:51:49.432Z,0.00
2022-11-03T04:52:49.412Z,0.00
2022-11-03T04:53:49.410Z,0.00
2022-11-03T04:54:49.408Z,0.00
2022-11-03T04:55:49.399Z,0.00
2022-11-03T04:56:49.378Z,0.00
2022-11-03T04:57:49.385Z,0.00
2022-11-03T04:58:49.350Z,0.00
2022-11-03T04:59:49.349Z,0.00
2022-11-03T05:00:49.357Z,0.00
2022-11-03T05:01:49.497Z,0.00
2022-11-03T05:02:51.602Z,0.00
2022-11-03T05:03:50.302Z,0.00
2022-11-03T05:04:49.314Z,0.00
2022-11-03T05:05:49.273Z,0.00
2022-11-03T05:06:49.265Z,0.00
2022-11-03T05:07:49.260Z,0.00
2022-11-03T05:08:49.243Z,0.00
2022-11-03T05:09:49.233Z,0.00
2022-11-03T05:10:49.243Z,0.00
2022-11-03T05:11:49.209Z,0.00
2022-11-03T05:12:49.218Z,0.00
2022-11-03T05:13:49.211Z,0.00
2022-11-03T05:14:52.849Z,0.00
2022-11-03T05:15:50.166Z,0.00
2022-11-03T05:16:49.167Z,0.00
2022-11-03T05:17:49.162Z,0.00
2022-11-03T05:18:49.143Z,0.00
2022-11-03T05:19:49.133Z,0.00
2022-11-03T05:20:49.143Z,0.00
2022-11-03T05:21:49.137Z,0.00
2022-11-03T05:22:49.089Z,0.00
2022-11-03T05:23:49.091Z,0.00
2022-11-03T05:24:49.075Z,0.00
2022-11-03T05:25:49.076Z,0.00
2022-11-03T05:26:49.068Z,0.00
2022-11-03T05:27:49.046Z,0.00
2022-11-03T05:28:49.026Z,0.00
2022-11-03T05:29:49.055Z,0.00
2022-11-03T05:30:49.046Z,0.00
2022-11-03T05:31:49.001Z,0.00
2022-11-03T05:32:48.986Z,0.00
2022-11-03T05:33:48.981Z,0.00
2022-11-03T05:34:48.969Z,0.00
2022-11-03T05:35:48.949Z,4.00
2022-11-03T05:36:48.959Z,4.00
2022-11-03T05:37:48.935Z,4.00
2022-11-03T05:38:48.921Z,0.00
2022-11-03T05:39:48.914Z,4.00
2022-11-03T05:40:48.925Z,4.00
2022-11-03T05:41:48.887Z,4.00
2022-11-03T05:42:48.901Z,4.00
2022-11-03T05:43:48.878Z,4.00
2022-11-03T05:44:48.860Z,4.00
2022-11-03T05:45:48.868Z,4.00
2022-11-03T05:46:49.500Z,8.00
2022-11-03T05:47:48.821Z,8.00
2022-11-03T05:48:48.829Z,12.00
2022-11-03T05:49:48.806Z,12.00
2022-11-03T05:50:48.795Z,12.00
2022-11-03T05:51:48.793Z,16.00
2022-11-03T05:52:48.768Z,20.00
2022-11-03T05:53:48.791Z,24.00
2022-11-03T05:54:48.749Z,24.00
2022-11-03T05:55:48.745Z,32.00
2022-11-03T05:56:48.728Z,36.00
2022-11-03T05:57:48.713Z,36.00
2022-11-03T05:58:48.701Z,44.00
2022-11-03T05:59:48.711Z,44.00
2022-11-03T06:00:49.133Z,52.00
2022-11-03T06:01:48.929Z,56.00
2022-11-03T06:02:48.733Z,64.00
2022-11-03T06:03:48.656Z,68.00
2022-11-03T06:04:48.695Z,72.00
2022-11-03T06:05:48.673Z,80.00
2022-11-03T06:06:48.639Z,84.00
2022-11-03T06:07:48.613Z,92.00
2022-11-03T06:08:48.608Z,100.00
2022-11-03T06:09:48.587Z,104.00
2022-11-03T06:10:48.602Z,112.00
2022-11-03T06:11:48.567Z,120.00
2022-11-03T06:12:48.556Z,124.00
2022-11-03T06:13:48.554Z,132.00
2022-11-03T06:14:48.536Z,144.00
2022-11-03T06:15:48.532Z,148.00
2022-11-03T06:16:48.536Z,160.00
2022-11-03T06:17:48.515Z,172.00
2022-11-03T06:18:48.497Z,184.00
2022-11-03T06:19:48.485Z,196.00
2022-11-03T06:20:48.490Z,208.00
2022-11-03T06:21:48.455Z,216.00
2022-11-03T06:22:48.443Z,224.00
2022-11-03T06:23:48.431Z,232.00
2022-11-03T06:24:48.429Z,240.00
2022-11-03T06:25:48.422Z,244.00
2022-11-03T06:26:48.423Z,244.00
2022-11-03T06:27:48.390Z,252.00
2022-11-03T06:28:48.386Z,264.00
2022-11-03T06:29:48.376Z,268.00
2022-11-03T06:30:48.374Z,276.00
2022-11-03T06:31:48.507Z,284.00
2022-11-03T06:32:48.359Z,296.00
2022-11-03T06:33:48.345Z,312.00
2022-11-03T06:34:48.314Z,320.00
2022-11-03T06:35:48.302Z,336.00
2022-11-03T06:36:48.292Z,352.00
2022-11-03T06:37:48.344Z,372.00
2022-11-03T06:38:48.268Z,388.00
2022-11-03T06:39:48.256Z,404.00
2022-11-03T06:40:48.258Z,420.00
2022-11-03T06:41:48.248Z,432.00
2022-11-03T06:42:48.235Z,448.00
2022-11-03T06:43:48.225Z,464.00
2022-11-03T06:44:48.209Z,476.00
2022-11-03T06:45:48.206Z,484.00
2022-11-03T06:46:48.186Z,496.00
2022-11-03T06:47:48.183Z,512.00
2022-11-03T06:48:48.188Z,540.00
2022-11-03T06:49:48.197Z,564.00
2022-11-03T06:50:48.143Z,580.00
2022-11-03T06:51:48.317Z,596.00
2022-11-03T06:53:48.117Z,632.00
2022-11-03T06:54:48.097Z,668.00
2022-11-03T06:55:48.131Z,716.00
2022-11-03T06:56:48.194Z,712.00
2022-11-03T06:57:48.073Z,700.00
2022-11-03T06:58:48.059Z,716.00
2022-11-03T06:59:57.007Z,756.00
2022-11-03T07:00:51.746Z,804.00
2022-11-03T07:01:48.144Z,836.00
2022-11-03T07:02:48.014Z,852.00
2022-11-03T07:03:47.997Z,860.00
2022-11-03T07:04:47.998Z,892.00
2022-11-03T07:05:48.072Z,916.00
2022-11-03T07:06:52.931Z,940.00
2022-11-03T07:07:48.973Z,948.00
2022-11-03T07:08:48.091Z,976.00
2022-11-03T07:09:48.022Z,1040.00
2022-11-03T07:10:48.344Z,1104.00
2022-11-03T07:11:51.963Z,1176.00
2022-11-03T07:12:49.608Z,1296.00
2022-11-03T07:13:48.138Z,1364.00
2022-11-03T07:14:48.012Z,1420.00
2022-11-03T07:15:47.982Z,1416.00
2022-11-03T07:16:48.054Z,1516.00
2022-11-03T07:17:48.096Z,1632.00
2022-11-03T07:18:47.934Z,1708.00
2022-11-03T07:19:47.887Z,1768.00
2022-11-03T07:20:48.011Z,1844.00
2022-11-03T07:21:47.925Z,1940.00
2022-11-03T07:22:47.898Z,2012.00
2022-11-03T07:23:49.503Z,2080.00
2022-11-03T07:24:47.794Z,2120.00
2022-11-03T07:25:47.838Z,2172.00
2022-11-03T07:26:47.899Z,2244.00
2022-11-03T07:27:47.804Z,2320.00
2022-11-03T07:28:47.882Z,2428.00
2022-11-03T07:29:47.740Z,2444.00
2022-11-03T07:30:47.977Z,2140.00
2022-11-03T07:31:48.776Z,2148.00
2022-11-03T07:32:47.707Z,2336.00
2022-11-03T07:33:47.691Z,2520.00
2022-11-03T07:34:47.684Z,2612.00
2022-11-03T07:36:13.895Z,2552.00
2022-11-03T07:36:54.267Z,2604.00
2022-11-03T07:37:48.659Z,2760.00
2022-11-03T07:38:47.653Z,2808.00
2022-11-03T07:39:47.630Z,2828.00
2022-11-03T07:40:47.613Z,2844.00
2022-11-03T07:41:47.595Z,2860.00
2022-11-03T07:42:47.591Z,2912.00
2022-11-03T07:43:56.588Z,2920.00
2022-11-03T07:44:47.560Z,2976.00
2022-11-03T07:45:47.552Z,3048.00
2022-11-03T07:46:47.550Z,3096.00
2022-11-03T07:47:47.536Z,3144.00
2022-11-03T07:48:47.517Z,3256.00
2022-11-03T07:49:47.527Z,3356.00
2022-11-03T07:50:47.508Z,3296.00
2022-11-03T07:51:47.512Z,3376.00
2022-11-03T07:52:47.481Z,3536.00
2022-11-03T07:53:47.490Z,3648.00
2022-11-03T07:54:47.465Z,3856.00
2022-11-03T07:55:47.526Z,3740.00
2022-11-03T07:56:47.441Z,3836.00
2022-11-03T07:57:47.452Z,4068.00
2022-11-03T07:58:47.413Z,4108.00
2022-11-03T07:59:47.410Z,4384.00
2022-11-03T08:00:47.422Z,4236.00
2022-11-03T08:01:47.592Z,4220.00
2022-11-03T08:02:47.417Z,4304.00
2022-11-03T08:03:47.390Z,4292.00
2022-11-03T08:04:47.357Z,4448.00
2022-11-03T08:05:47.366Z,4376.00
2022-11-03T08:06:47.364Z,4304.00
2022-11-03T08:07:47.324Z,4392.00
2022-11-03T08:08:47.324Z,4232.00
2022-11-03T08:09:47.307Z,4500.00
2022-11-03T08:10:47.288Z,4824.00
2022-11-03T08:11:47.292Z,4916.00
2022-11-03T08:12:47.271Z,4560.00
2022-11-03T08:13:47.270Z,5180.00
2022-11-03T08:14:47.252Z,5920.00
2022-11-03T08:15:47.272Z,7504.00
2022-11-03T08:16:47.291Z,10756.00
2022-11-03T08:17:48.815Z,13636.00
2022-11-03T08:18:47.195Z,16448.00
2022-11-03T08:19:47.192Z,17824.00
2022-11-03T08:20:47.198Z,18208.00
2022-11-03T08:21:48.094Z,17280.00
2022-11-03T08:23:05.128Z,13008.00
2022-11-03T08:23:48.148Z,20832.00
2022-11-03T08:24:47.129Z,13464.00
2022-11-03T08:25:47.147Z,13480.00
2022-11-03T08:26:47.134Z,13164.00
2022-11-03T08:27:47.114Z,12136.00
2022-11-03T08:28:47.106Z,11716.00
2022-11-03T08:29:47.120Z,11364.00
2022-11-03T08:30:47.073Z,12448.00
2022-11-03T08:31:47.080Z,20832.00
2022-11-03T08:32:47.051Z,20992.00
2022-11-03T08:33:47.049Z,21632.00
2022-11-03T08:34:47.028Z,21504.00
2022-11-03T08:35:47.045Z,23872.00
2022-11-03T08:36:47.026Z,23616.00
2022-11-03T08:37:47.006Z,23584.00
2022-11-03T08:38:47.520Z,22272.00
2022-11-03T08:39:46.993Z,21536.00
2022-11-03T08:40:51.359Z,15840.00
2022-11-03T08:41:47.975Z,13284.00
2022-11-03T08:42:46.943Z,9536.00
2022-11-03T08:43:46.941Z,9976.00
2022-11-03T08:44:46.926Z,11104.00
2022-11-03T08:45:46.911Z,11428.00
2022-11-03T08:46:46.906Z,11348.00
2022-11-03T08:47:46.885Z,11548.00
2022-11-03T08:48:46.890Z,9000.00
2022-11-03T08:49:46.869Z,12412.00
2022-11-03T08:50:46.857Z,10748.00
2022-11-03T08:51:46.878Z,8052.00
2022-11-03T08:52:46.840Z,7268.00
2022-11-03T08:53:46.826Z,9176.00
2022-11-03T08:54:47.001Z,14784.00
2022-11-03T08:55:46.807Z,15328.00
2022-11-03T08:56:46.872Z,11008.00
2022-11-03T08:57:46.830Z,7788.00
2022-11-03T08:58:46.775Z,7348.00
2022-11-03T08:59:46.765Z,6604.00
2022-11-03T09:00:46.760Z,6952.00
2022-11-03T09:01:46.923Z,6012.00
2022-11-03T09:02:46.715Z,5424.00
2022-11-03T09:03:46.900Z,4996.00
2022-11-03T09:04:46.724Z,5144.00
2022-11-03T09:05:46.705Z,5044.00
2022-11-03T09:06:46.717Z,4868.00
2022-11-03T09:10:47.639Z,4220.00
2022-11-03T09:11:46.635Z,4748.00
2022-11-03T09:12:46.626Z,5348.00
2022-11-03T09:13:46.638Z,4560.00
2022-11-03T09:14:46.605Z,4404.00
2022-11-03T09:15:46.587Z,4288.00
2022-11-03T09:16:46.586Z,4256.00
2022-11-03T09:17:46.572Z,4340.00
2022-11-03T09:18:46.552Z,5704.00
2022-11-03T09:19:46.556Z,7004.00
2022-11-03T09:20:46.528Z,8664.00
2022-11-03T09:21:46.511Z,8156.00
2022-11-03T09:22:46.549Z,8204.00
2022-11-03T09:23:46.494Z,6216.00
2022-11-03T09:24:46.487Z,6872.00
2022-11-03T09:25:46.503Z,10432.00
2022-11-03T09:26:46.466Z,11148.00
2022-11-03T09:27:46.447Z,15296.00
2022-11-03T09:28:46.440Z,14752.00
2022-11-03T09:30:11.561Z,18464.00
2022-11-03T09:30:47.433Z,13772.00
2022-11-03T09:31:46.409Z,20832.00
2022-11-03T09:32:46.403Z,21280.00
2022-11-03T09:33:46.388Z,20640.00
2022-11-03T09:34:46.376Z,14328.00
2022-11-03T09:35:46.373Z,13524.00
2022-11-03T09:36:52.150Z,11360.00
2022-11-03T09:37:47.341Z,10032.00
2022-11-03T09:38:46.342Z,9776.00
2022-11-03T09:39:46.324Z,9276.00
2022-11-03T09:40:46.313Z,7760.00
2022-11-03T09:41:58.120Z,6920.00
2022-11-03T09:42:47.291Z,7336.00
2022-11-03T09:43:46.279Z,6884.00
2022-11-03T09:44:46.265Z,8432.00
2022-11-03T09:45:46.274Z,7628.00
2022-11-03T09:46:46.256Z,6236.00
2022-11-03T09:47:46.269Z,6144.00
2022-11-03T09:48:46.227Z,5744.00
2022-11-03T09:49:46.210Z,5608.00
2022-11-03T09:50:46.217Z,5492.00
2022-11-03T09:51:46.191Z,5144.00
2022-11-03T09:52:51.325Z,5172.00
2022-11-03T09:53:47.190Z,5616.00
2022-11-03T09:54:46.159Z,5656.00
2022-11-03T09:55:46.144Z,5324.00
2022-11-03T09:56:46.139Z,4892.00
2022-11-03T09:57:46.137Z,4592.00
2022-11-03T09:58:51.287Z,4560.00
2022-11-03T09:59:47.108Z,4480.00
2022-11-03T10:00:46.178Z,4296.00
2022-11-03T10:01:46.221Z,4196.00
2022-11-03T10:02:46.069Z,4180.00
2022-11-03T10:03:46.085Z,4272.00
2022-11-03T10:04:46.048Z,4248.00
2022-11-03T10:05:46.046Z,4388.00
2022-11-03T10:06:46.032Z,4400.00
2022-11-03T10:07:46.060Z,4428.00
2022-11-03T10:08:46.020Z,4448.00
2022-11-03T10:09:46.010Z,4748.00
2022-11-03T10:10:45.998Z,4776.00
2022-11-03T10:11:45.974Z,4904.00
2022-11-03T10:12:45.968Z,5052.00
2022-11-03T10:13:45.950Z,4828.00
2022-11-03T10:14:45.960Z,4828.00
2022-11-03T10:15:45.960Z,4904.00
2022-11-03T10:16:50.782Z,4808.00
2022-11-03T10:17:46.950Z,5080.00
2022-11-03T10:18:45.905Z,5128.00
2022-11-03T10:19:45.904Z,5304.00
2022-11-03T10:20:45.882Z,5060.00
2022-11-03T10:21:45.882Z,4988.00
2022-11-03T10:22:45.851Z,5144.00
2022-11-03T10:23:45.844Z,5004.00
2022-11-03T10:24:45.847Z,5016.00
2022-11-03T10:25:45.843Z,4900.00
2022-11-03T10:26:45.832Z,4860.00
2022-11-03T10:27:45.867Z,4864.00
2022-11-03T10:28:45.794Z,4896.00
2022-11-03T10:29:50.817Z,4844.00
2022-11-03T10:31:10.103Z,4764.00
2022-11-03T10:31:46.782Z,4764.00
2022-11-03T10:32:45.773Z,4756.00
2022-11-03T10:33:45.868Z,4640.00
2022-11-03T10:34:45.729Z,4604.00
2022-11-03T10:35:45.729Z,4516.00
2022-11-03T10:36:50.430Z,4488.00
2022-11-03T10:37:45.696Z,4436.00
2022-11-03T10:38:45.859Z,4400.00
2022-11-03T10:39:45.766Z,4460.00
2022-11-03T10:40:48.189Z,4524.00
2022-11-03T10:41:45.698Z,4532.00
2022-11-03T10:42:45.634Z,4524.00
2022-11-03T10:43:45.687Z,4532.00
2022-11-03T10:44:45.651Z,4528.00
2022-11-03T10:45:45.828Z,4460.00
2022-11-03T10:46:50.595Z,4352.00
2022-11-03T10:47:46.896Z,4352.00
2022-11-03T10:48:45.599Z,4324.00
2022-11-03T10:49:45.632Z,4304.00
2022-11-03T10:50:45.562Z,4248.00
2022-11-03T10:52:01.082Z,4224.00
2022-11-03T10:52:45.523Z,4220.00
2022-11-03T10:53:45.532Z,4164.00
2022-11-03T10:54:45.515Z,4136.00
2022-11-03T10:55:45.509Z,4136.00
2022-11-03T10:56:45.497Z,4120.00
2022-11-03T10:57:48.112Z,4088.00
2022-11-03T10:58:46.512Z,4024.00
2022-11-03T10:59:45.453Z,3916.00
2022-11-03T11:00:45.499Z,3800.00
2022-11-03T11:01:45.593Z,3716.00
2022-11-03T11:02:45.417Z,3612.00
2022-11-03T11:03:45.581Z,3544.00
2022-11-03T11:04:45.518Z,3528.00
2022-11-03T11:05:45.413Z,3568.00
2022-11-03T11:06:45.381Z,3632.00
2022-11-03T11:07:45.427Z,3660.00
2022-11-03T11:08:45.358Z,3680.00
2022-11-03T11:09:45.342Z,3676.00
2022-11-03T11:10:45.355Z,3668.00
2022-11-03T11:11:45.339Z,3636.00
2022-11-03T11:12:45.329Z,3600.00
2022-11-03T11:13:45.312Z,3580.00
2022-11-03T11:14:45.281Z,3540.00
2022-11-03T11:15:45.291Z,3488.00
2022-11-03T11:16:45.277Z,3416.00
2022-11-03T11:17:45.300Z,3364.00
2022-11-03T11:18:45.250Z,3328.00
2022-11-03T11:19:45.389Z,3312.00
2022-11-03T11:20:45.237Z,3284.00
2022-11-03T11:21:45.229Z,3248.00
2022-11-03T11:22:45.203Z,3188.00
2022-11-03T11:23:45.193Z,3124.00
2022-11-03T11:24:45.194Z,3068.00
2022-11-03T11:25:45.179Z,3004.00
2022-11-03T11:26:45.639Z,2924.00
2022-11-03T11:27:45.168Z,2852.00
2022-11-03T11:28:45.143Z,2812.00
2022-11-03T11:29:45.146Z,2776.00
2022-11-03T11:30:45.118Z,2736.00
2022-11-03T11:31:45.123Z,2704.00
2022-11-03T11:32:45.097Z,2680.00
2022-11-03T11:33:45.079Z,2684.00
2022-11-03T11:34:45.088Z,2668.00
2022-11-03T11:35:45.054Z,2640.00
2022-11-03T11:36:45.057Z,2592.00
2022-11-03T11:37:45.058Z,2520.00
2022-11-03T11:38:45.037Z,2448.00
2022-11-03T11:39:45.031Z,2396.00
2022-11-03T11:40:45.012Z,2364.00
2022-11-03T11:41:44.998Z,2364.00
2022-11-03T11:42:45.005Z,2372.00
2022-11-03T11:43:44.999Z,2416.00
2022-11-03T11:44:44.989Z,2488.00
2022-11-03T11:45:44.952Z,2576.00
2022-11-03T11:46:44.953Z,2676.00
2022-11-03T11:47:44.939Z,2764.00
2022-11-03T11:48:44.946Z,2816.00
2022-11-03T11:49:44.915Z,2840.00
2022-11-03T11:50:44.899Z,2828.00
2022-11-03T11:51:44.892Z,2796.00
2022-11-03T11:52:44.884Z,2752.00
2022-11-03T11:53:46.123Z,2704.00
2022-11-03T11:54:44.876Z,2652.00
2022-11-03T11:55:44.908Z,2604.00
2022-11-03T11:56:44.837Z,2552.00
2022-11-03T11:57:44.834Z,2512.00
2022-11-03T11:58:44.810Z,2488.00
2022-11-03T11:59:44.803Z,2480.00
2022-11-03T12:00:44.801Z,2476.00
2022-11-03T12:01:44.892Z,2464.00
2022-11-03T12:02:44.783Z,2452.00
2022-11-03T12:03:44.852Z,2424.00
2022-11-03T12:04:44.746Z,2388.00
2022-11-03T12:05:44.738Z,2364.00
2022-11-03T12:07:44.726Z,2340.00
2022-11-03T12:08:44.703Z,2316.00
2022-11-03T12:09:44.716Z,2296.00
2022-11-03T12:10:44.695Z,2280.00
2022-11-03T12:11:46.123Z,2272.00
2022-11-03T12:12:44.697Z,2264.00
2022-11-03T12:13:44.649Z,2260.00
2022-11-03T12:14:44.640Z,2272.00
2022-11-03T12:15:44.644Z,2276.00
2022-11-03T12:16:44.628Z,2284.00
2022-11-03T12:17:44.607Z,2296.00
2022-11-03T12:18:50.259Z,2304.00
2022-11-03T12:19:45.587Z,2312.00
2022-11-03T12:20:44.582Z,2316.00
2022-11-03T12:21:44.585Z,2308.00
2022-11-03T12:22:44.549Z,2284.00
2022-11-03T12:23:44.552Z,2256.00
2022-11-03T12:24:44.551Z,2248.00
2022-11-03T12:25:44.541Z,2252.00
2022-11-03T12:26:44.529Z,2272.00
2022-11-03T12:27:44.510Z,2284.00
2022-11-03T12:28:44.504Z,2284.00
2022-11-03T12:29:44.496Z,2288.00
2022-11-03T12:30:44.463Z,2288.00
2022-11-03T12:31:44.454Z,2304.00
2022-11-03T12:32:44.447Z,2308.00
2022-11-03T12:33:44.431Z,2300.00
2022-11-03T12:34:44.444Z,2296.00
2022-11-03T12:35:44.415Z,2280.00
2022-11-03T12:36:44.412Z,2268.00
2022-11-03T12:37:44.398Z,2268.00
2022-11-03T12:38:44.377Z,2260.00
2022-11-03T12:39:44.377Z,2272.00
2022-11-03T12:40:44.391Z,2276.00
2022-11-03T12:41:44.369Z,2292.00
2022-11-03T12:42:44.344Z,2300.00
2022-11-03T12:43:44.376Z,2308.00
2022-11-03T12:44:44.354Z,2316.00